Time;durP1;ratioP1;P1;durP2;ratioP2;P2;SDS_P1;SDS_P2;PMS_P1;PMS_P2;Temp;Humidity;BMP_temperature;BMP_pressure;BME280_temperature;BME280_humidity;BME280_pressure;Samples;Min_cycle;Max_cycle;Signal;HPM_P1;HPM_P2
2022/04/14 00:01:12;;;;;;;;;12.50;12.50;;;;;14.38;73.87;101188.59;5076360;27;45347;-62
2022/04/14 00:03:40;;;;;;;;;12.00;10.50;;;;;14.31;74.19;101179.22;5076687;28;45284;-69
2022/04/14 00:06:05;;;;;;;;;12.25;10.25;;;;;14.28;74.18;101179.38;5076684;27;45608;-63
2022/04/14 00:08:31;;;;;;;;;14.75;13.00;;;;;14.25;74.43;101174.22;5076869;27;45327;-67
2022/04/14 00:10:57;;;;;;;;;14.25;11.25;;;;;14.21;74.59;101172.66;5076880;27;45230;-70
2022/04/14 00:13:22;;;;;;;;;13.00;11.25;;;;;14.17;74.63;101172.78;5077283;27;45731;-65
2022/04/14 00:15:47;;;;;;;;;8.00;8.00;;;;;14.14;74.62;101169.41;5076754;28;45625;-67
2022/04/14 00:18:13;;;;;;;;;12.00;10.25;;;;;14.15;74.64;101179.06;5076813;28;45914;-66
2022/04/14 00:20:38;;;;;;;;;13.25;10.25;;;;;14.09;75.02;101180.22;5077138;27;45317;-65
2022/04/14 00:23:03;;;;;;;;;14.50;12.25;;;;;14.07;75.13;101182.06;5077077;27;45673;-68
2022/04/14 00:25:29;;;;;;;;;12.00;12.00;;;;;14.06;75.55;101177.72;5075681;28;45580;-68
2022/04/14 00:27:54;;;;;;;;;13.75;12.25;;;;;14.03;75.41;101177.84;5076524;27;45279;-65
2022/04/14 00:30:19;;;;;;;;;13.75;12.00;;;;;14.00;75.55;101173.53;5076821;27;46139;-63
2022/04/14 00:32:44;;;;;;;;;11.50;11.50;;;;;13.97;75.62;101176.31;5076833;27;45415;-67
2022/04/14 00:35:10;;;;;;;;;12.25;10.00;;;;;13.94;75.86;101172.97;5077030;28;45179;-68
2022/04/14 00:37:35;;;;;;;;;15.50;14.00;;;;;13.93;76.12;101174.75;5076857;27;45873;-65
2022/04/14 00:40:00;;;;;;;;;13.50;13.50;;;;;13.93;76.03;101173.91;5076997;27;45548;-70
2022/04/14 00:42:26;;;;;;;;;16.00;13.25;;;;;13.88;76.31;101164.41;5076721;27;45411;-70
2022/04/14 00:44:52;;;;;;;;;17.25;14.00;;;;;13.86;76.55;101162.72;5076164;27;45332;-69
2022/04/14 00:47:17;;;;;;;;;14.00;14.00;;;;;13.85;76.87;101168.94;5074794;27;45971;-71
2022/04/14 00:49:43;;;;;;;;;13.75;11.75;;;;;13.80;76.93;101170.94;5076647;27;45370;-67
2022/04/14 00:52:08;;;;;;;;;14.25;12.50;;;;;13.80;77.04;101173.59;5076795;27;45405;-63
2022/04/14 00:54:34;;;;;;;;;14.75;13.25;;;;;13.78;77.14;101171.00;5076834;28;45607;-63
2022/04/14 00:57:01;;;;;;;;;14.50;11.50;;;;;13.77;77.14;101169.28;5076104;28;45356;-62
2022/04/14 00:59:27;;;;;;;;;13.75;13.00;;;;;13.74;77.19;101166.75;5076289;27;45283;-64
2022/04/14 01:01:53;;;;;;;;;15.00;13.50;;;;;13.73;77.56;101167.69;5076626;28;45338;-64
2022/04/14 01:04:19;;;;;;;;;14.50;13.25;;;;;13.69;77.28;101169.63;5076793;28;45319;-68
2022/04/14 01:06:45;;;;;;;;;11.75;11.75;;;;;13.69;77.53;101168.75;5076194;28;45433;-67
2022/04/14 01:09:19;;;;;;;;;16.75;13.00;;;;;13.65;77.76;101172.47;5076350;28;45830;-67
2022/04/14 01:11:50;;;;;;;;;15.25;14.75;;;;;13.67;77.91;101175.91;5076740;27;45881;-70
2022/04/14 01:14:29;;;;;;;;;16.75;16.75;;;;;13.66;78.05;101171.53;5076327;27;45225;-71
2022/04/14 01:16:56;;;;;;;;;17.50;15.00;;;;;13.64;77.81;101176.03;5074913;28;48592;-68
2022/04/14 01:19:22;;;;;;;;;13.25;13.00;;;;;13.62;78.26;101172.59;5076000;27;45472;-72
2022/04/14 01:22:25;;;;;;;;;16.25;13.00;;;;;13.63;78.42;101174.31;5075967;28;45478;-76
2022/04/14 01:24:54;;;;;;;;;13.75;13.00;;;;;13.62;78.50;101177.88;5068072;28;45588;-69
2022/04/14 01:27:19;;;;;;;;;14.75;14.00;;;;;13.41;78.70;101146.16;5076055;28;47122;-75
2022/04/14 01:29:46;;;;;;;;;18.50;17.25;;;;;13.62;78.80;101177.88;5074398;28;45337;-74
2022/04/14 01:32:11;;;;;;;;;20.50;16.75;;;;;13.59;78.71;101182.38;5075874;27;45428;-69
2022/04/14 01:34:37;;;;;;;;;17.75;17.25;;;;;13.59;78.85;101174.44;5076200;27;45429;-73
2022/04/14 01:37:02;;;;;;;;;16.50;14.25;;;;;13.62;78.66;101180.53;5075836;27;46582;-69
2022/04/14 01:39:28;;;;;;;;;18.50;16.25;;;;;13.65;78.62;101185.69;5075561;28;45230;-70
2022/04/14 01:41:54;;;;;;;;;19.25;18.00;;;;;13.62;78.86;101188.47;5075689;27;45251;-65
2022/04/14 01:44:19;;;;;;;;;20.25;17.50;;;;;13.62;79.17;101188.47;5075789;27;45219;-68
2022/04/14 01:46:45;;;;;;;;;20.25;17.25;;;;;13.66;78.94;101184.75;5075333;27;46114;-63
2022/04/14 01:49:11;;;;;;;;;17.50;14.75;;;;;13.66;78.80;101180.34;5075548;27;45383;-68
2022/04/14 01:51:36;;;;;;;;;18.25;16.25;;;;;13.63;78.84;101175.19;5075806;27;45297;-67
2022/04/14 01:54:03;;;;;;;;;16.75;15.25;;;;;13.68;78.96;101182.91;5075873;28;45356;-65
2022/04/14 01:56:29;;;;;;;;;18.75;18.75;;;;;13.67;79.07;101173.25;5073938;28;48436;-67
2022/04/14 01:58:54;;;;;;;;;23.75;19.50;;;;;13.69;79.15;101180.22;5075147;27;45333;-63
2022/04/14 02:01:20;;;;;;;;;15.00;15.00;;;;;13.68;79.42;101170.56;5075247;28;45423;-70
2022/04/14 02:03:46;;;;;;;;;18.50;17.75;;;;;13.66;79.53;101174.19;5075681;28;45327;-63
2022/04/14 02:06:13;;;;;;;;;13.75;13.50;;;;;13.68;79.08;101174.97;5075611;27;45996;-65
2022/04/14 02:08:38;;;;;;;;;20.75;18.75;;;;;13.68;79.08;101172.31;5075852;27;45228;-71
2022/04/14 02:11:03;;;;;;;;;16.75;15.00;;;;;13.69;79.11;101171.41;5075745;27;45263;-71
2022/04/14 02:13:30;;;;;;;;;15.00;15.00;;;;;13.67;79.27;101171.47;5075707;27;45340;-69
2022/04/14 02:15:55;;;;;;;;;17.75;15.50;;;;;13.69;79.49;101171.41;5075428;27;46104;-66
2022/04/14 02:18:20;;;;;;;;;14.00;14.00;;;;;13.66;79.36;101167.13;5074259;28;45246;-65
2022/04/14 02:20:46;;;;;;;;;15.50;15.50;;;;;13.67;79.52;101173.25;5075766;27;45452;-66
2022/04/14 02:23:11;;;;;;;;;14.25;14.25;;;;;13.67;79.50;101171.47;5075962;28;45279;-67
2022/04/14 02:25:37;;;;;;;;;18.00;15.25;;;;;13.51;79.48;101144.84;5074972;27;45337;-67
2022/04/14 02:28:02;;;;;;;;;21.75;17.50;;;;;13.64;79.54;101168.09;5074762;27;45271;-63
2022/04/14 02:30:27;;;;;;;;;20.75;16.25;;;;;13.64;79.69;101166.34;5075120;27;45347;-63
2022/04/14 02:32:53;;;;;;;;;17.00;16.75;;;;;13.63;79.70;101167.25;5074910;27;45336;-64
2022/04/14 02:35:18;;;;;;;;;14.50;14.50;;;;;13.64;79.73;101165.47;5074821;27;45549;-63
2022/04/14 02:37:43;;;;;;;;;17.25;17.25;;;;;13.63;79.78;101166.38;5074941;27;45329;-65
2022/04/14 02:40:09;;;;;;;;;15.50;15.50;;;;;13.63;79.94;101167.25;5075025;27;45428;-63
2022/04/14 02:42:34;;;;;;;;;19.50;15.75;;;;;13.64;79.84;101168.09;5075289;28;46190;-63
2022/04/14 02:45:00;;;;;;;;;18.00;16.75;;;;;13.66;80.13;101176.81;5074654;27;45340;-63
2022/04/14 02:47:25;;;;;;;;;21.50;18.25;;;;;13.66;79.78;101172.41;5074542;27;45408;-61
2022/04/14 02:49:51;;;;;;;;;19.50;16.50;;;;;13.65;80.05;101173.34;5074677;27;45327;-64
2022/04/14 02:52:16;;;;;;;;;17.50;17.50;;;;;13.66;80.27;101179.47;5074921;28;45310;-66
2022/04/14 02:54:42;;;;;;;;;22.00;16.50;;;;;13.68;80.05;101183.78;5073437;28;47177;-63
2022/04/14 02:57:09;;;;;;;;;22.00;22.00;;;;;13.69;80.07;101179.34;5074596;27;45399;-67
2022/04/14 02:59:36;;;;;;;;;22.00;19.00;;;;;13.69;80.19;101179.34;5073313;28;45387;-67
2022/04/14 03:02:03;;;;;;;;;19.75;19.25;;;;;13.68;80.16;101174.97;5074652;27;45473;-62
2022/04/14 03:04:29;;;;;;;;;19.50;16.50;;;;;13.68;80.36;101170.56;5074201;28;46656;-63
2022/04/14 03:06:54;;;;;;;;;18.75;17.25;;;;;13.68;80.70;101173.19;5075364;27;45328;-66
2022/04/14 03:09:20;;;;;;;;;20.50;18.50;;;;;13.67;80.46;101171.47;5077937;27;45388;-68
2022/04/14 03:11:45;;;;;;;;;21.25;21.25;;;;;13.62;80.37;101167.31;5078543;27;45357;-66
2022/04/14 03:14:10;;;;;;;;;17.25;15.50;;;;;13.66;80.55;101171.53;5076600;27;46575;-74
2022/04/14 03:16:36;;;;;;;;;19.75;18.75;;;;;13.65;80.65;101165.41;5077775;27;47458;-73
2022/04/14 03:19:01;;;;;;;;;20.50;20.50;;;;;13.64;80.38;101176.91;5077669;27;45556;-74
2022/04/14 03:21:26;;;;;;;;;18.50;17.25;;;;;13.65;80.75;101183.03;5078046;27;45405;-73
2022/04/14 03:23:52;;;;;;;;;15.25;15.25;;;;;13.65;80.95;101197.13;5077209;27;54399;-71
2022/04/14 03:26:17;;;;;;;;;22.50;18.50;;;;;13.63;81.07;101192.81;5077567;28;45312;-70
2022/04/14 03:28:43;;;;;;;;;21.25;18.25;;;;;13.61;81.31;101187.63;5077985;28;45449;-65
2022/04/14 03:31:09;;;;;;;;;25.50;23.75;;;;;13.61;81.30;101184.09;5077398;27;45503;-67
2022/04/14 03:33:35;;;;;;;;;27.50;25.00;;;;;13.55;81.43;101187.88;5077427;27;45406;-66
2022/04/14 03:36:00;;;;;;;;;27.50;23.75;;;;;13.53;81.71;101197.66;5077263;28;45313;-70
2022/04/14 03:38:26;;;;;;;;;28.25;25.25;;;;;13.44;82.14;101196.25;5077384;27;45322;-69
2022/04/14 03:40:51;;;;;;;;;36.00;30.25;;;;;13.38;82.26;101193.84;5077584;27;45584;-67
2022/04/14 03:43:16;;;;;;;;;35.50;30.00;;;;;13.33;82.05;101199.34;5077378;27;46189;-67
2022/04/14 03:45:43;;;;;;;;;32.75;30.00;;;;;13.27;82.34;101192.50;5077291;27;45364;-66
2022/04/14 03:48:08;;;;;;;;;29.00;26.75;;;;;13.09;82.98;101173.00;5077159;28;45325;-69
2022/04/14 03:50:34;;;;;;;;;35.00;32.25;;;;;13.15;83.11;101195.66;5077193;27;45264;-69
2022/04/14 03:52:59;;;;;;;;;33.00;31.75;;;;;13.14;83.33;101207.16;5076740;28;45516;-67
2022/04/14 03:55:25;;;;;;;;;40.00;33.50;;;;;13.06;83.24;101210.09;5076965;27;45309;-62
2022/04/14 03:57:50;;;;;;;;;34.50;32.00;;;;;13.01;83.47;101204.13;5075365;27;45803;-70
2022/04/14 04:00:15;;;;;;;;;32.25;31.50;;;;;12.97;83.59;101198.13;5077354;27;45466;-64
2022/04/14 04:02:41;;;;;;;;;35.00;33.25;;;;;12.97;83.43;101203.41;5076807;28;46171;-64
2022/04/14 04:05:06;;;;;;;;;37.25;33.50;;;;;12.96;83.48;101206.09;5075646;28;45570;-65
2022/04/14 04:07:32;;;;;;;;;39.50;33.75;;;;;12.95;83.65;101205.25;5075528;28;45253;-62
2022/04/14 04:09:57;;;;;;;;;35.75;33.75;;;;;12.96;83.53;101214.03;5076864;27;45274;-66
2022/04/14 04:12:23;;;;;;;;;42.25;34.00;;;;;12.91;83.62;101214.22;5076723;27;46452;-66
2022/04/14 04:14:49;;;;;;;;;32.75;28.75;;;;;12.89;83.87;101213.44;5077024;27;45279;-67
2022/04/14 04:17:17;;;;;;;;;33.25;31.50;;;;;12.91;83.62;101205.44;5077095;27;45391;-68
2022/04/14 04:19:43;;;;;;;;;35.25;32.50;;;;;12.88;83.81;101197.63;5075713;27;45356;-68
2022/04/14 04:22:09;;;;;;;;;39.25;33.50;;;;;12.85;83.71;101191.56;5076694;28;46053;-65
2022/04/14 04:24:34;;;;;;;;;37.25;34.25;;;;;12.82;83.98;101178.47;5076506;27;45435;-63
2022/04/14 04:27:00;;;;;;;;;33.00;32.00;;;;;12.85;84.08;101193.34;5076966;27;45374;-62
2022/04/14 04:29:25;;;;;;;;;35.75;32.00;;;;;12.81;84.08;101189.13;5076827;27;45454;-64
2022/04/14 04:31:51;;;;;;;;;33.00;31.25;;;;;12.81;84.20;101194.41;5074907;28;45965;-67
2022/04/14 04:34:17;;;;;;;;;34.75;31.00;;;;;12.79;84.57;101205.00;5076781;27;45375;-65
2022/04/14 04:36:43;;;;;;;;;40.25;36.25;;;;;12.77;84.56;101198.06;5076575;27;45318;-63
2022/04/14 04:39:08;;;;;;;;;42.00;34.25;;;;;12.76;84.89;101199.84;5076445;27;45604;-67
2022/04/14 04:41:33;;;;;;;;;34.00;30.00;;;;;12.71;84.68;101205.28;5070798;27;46266;-64
2022/04/14 04:43:59;;;;;;;;;35.00;32.00;;;;;12.69;84.99;101219.47;5063326;28;45257;-65
2022/04/14 04:46:24;;;;;;;;;34.50;32.25;;;;;12.68;85.39;101221.25;5055601;28;45678;-65
2022/04/14 04:48:50;;;;;;;;;34.00;32.75;;;;;12.61;85.27;101225.03;5075066;27;45990;-70
2022/04/14 04:51:16;;;;;;;;;32.75;31.75;;;;;12.62;85.67;101234.69;5075786;27;45605;-67
2022/04/14 04:53:41;;;;;;;;;34.25;31.50;;;;;12.58;85.71;101230.44;5075218;27;45583;-71
2022/04/14 04:56:06;;;;;;;;;35.50;33.50;;;;;12.57;85.95;101237.50;5075970;27;45274;-66
2022/04/14 04:58:32;;;;;;;;;41.75;34.25;;;;;12.57;85.81;101236.63;5075944;27;45513;-67
2022/04/14 05:00:57;;;;;;;;;38.50;34.00;;;;;12.54;86.02;101240.28;5056495;28;45395;-71
2022/04/14 05:03:23;;;;;;;;;47.00;37.75;;;;;12.54;86.19;101234.13;5055102;28;45333;-70
2022/04/14 05:05:49;;;;;;;;;44.50;35.25;;;;;12.53;86.26;101237.66;5055682;28;45678;-74
2022/04/14 05:08:15;;;;;;;;;43.00;36.25;;;;;12.52;86.09;101239.47;5055474;28;45335;-72
2022/04/14 05:10:40;;;;;;;;;42.00;36.75;;;;;12.53;86.56;101237.66;5063365;28;46517;-76
2022/04/14 05:13:06;;;;;;;;;45.00;36.50;;;;;12.54;86.37;101231.47;5077281;27;45431;-79
2022/04/14 05:15:31;;;;;;;;;46.00;37.50;;;;;12.51;86.41;101232.47;5081548;27;45355;-67
2022/04/14 05:17:56;;;;;;;;;34.50;32.50;;;;;12.53;86.41;101228.00;5076011;27;45485;-62
2022/04/14 05:20:22;;;;;;;;;37.25;33.75;;;;;12.54;86.56;101232.34;5076929;27;46512;-63
2022/04/14 05:22:47;;;;;;;;;47.00;37.50;;;;;12.55;86.51;101230.56;5074696;27;45378;-71
2022/04/14 05:25:13;;;;;;;;;42.75;37.75;;;;;12.55;86.17;101234.06;5075037;28;45234;-67
2022/04/14 05:27:39;;;;;;;;;40.00;34.25;;;;;12.56;86.80;101229.63;5075913;27;45202;-66
2022/04/14 05:30:05;;;;;;;;;41.50;36.25;;;;;12.62;86.88;101241.75;5062539;27;46684;-66
2022/04/14 05:32:31;;;;;;;;;47.75;38.25;;;;;12.61;86.80;101237.41;5055144;28;45320;-66
2022/04/14 05:34:56;;;;;;;;;40.25;34.75;;;;;12.63;86.38;101240.84;5055690;28;45384;-66
2022/04/14 05:37:21;;;;;;;;;47.25;36.75;;;;;12.62;86.31;101233.84;5056079;28;45366;-65
2022/04/14 05:39:47;;;;;;;;;30.25;25.25;;;;;12.64;86.28;101248.69;5055774;28;45346;-69
2022/04/14 05:42:12;;;;;;;;;44.00;36.50;;;;;12.68;86.29;101254.72;5055772;28;45313;-69
2022/04/14 05:44:37;;;;;;;;;38.75;35.75;;;;;12.70;86.63;101256.34;5055302;28;45350;-63
2022/04/14 05:47:03;;;;;;;;;42.75;33.75;;;;;12.74;85.88;101258.91;5072641;27;45523;-65
2022/04/14 05:49:28;;;;;;;;;45.25;35.75;;;;;12.75;86.11;101260.63;5074535;27;45429;-62
2022/04/14 05:51:54;;;;;;;;;43.75;35.75;;;;;12.80;85.78;101261.31;5073510;27;45390;-63
2022/04/14 05:54:19;;;;;;;;;46.00;34.50;;;;;12.83;85.92;101262.03;5075442;27;45475;-63
2022/04/14 05:56:44;;;;;;;;;42.75;38.00;;;;;12.85;86.06;101257.56;5075732;27;45575;-69
2022/04/14 05:59:16;;;;;;;;;41.25;34.25;;;;;12.91;85.80;101269.69;5072612;27;46186;-73
2022/04/14 06:01:43;;;;;;;;;46.25;38.75;;;;;12.91;85.67;101261.75;5067151;28;45446;-75
2022/04/14 06:04:08;;;;;;;;;52.00;42.50;;;;;12.98;85.53;101268.50;5075478;27;45946;-66
2022/04/14 06:06:33;;;;;;;;;43.50;37.75;;;;;13.02;85.86;101261.31;5075493;27;45618;-65
2022/04/14 06:08:59;;;;;;;;;48.00;41.25;;;;;13.05;85.22;101261.19;5070177;27;45932;-62
2022/04/14 06:11:25;;;;;;;;;36.25;30.50;;;;;13.12;85.40;101269.75;5074740;27;45338;-65
2022/04/14 06:13:51;;;;;;;;;42.75;36.00;;;;;13.14;84.80;101266.09;5074829;27;45464;-66
2022/04/14 06:16:16;;;;;;;;;48.75;40.25;;;;;13.19;84.85;101268.56;5062441;28;45481;-64
2022/04/14 06:18:41;;;;;;;;;53.25;40.25;;;;;13.26;84.62;101266.56;5074166;27;45945;-64
2022/04/14 06:21:07;;;;;;;;;47.75;41.50;;;;;13.30;84.68;101263.72;5074015;27;53204;-67
2022/04/14 06:23:33;;;;;;;;;48.75;40.50;;;;;13.35;83.99;101258.25;5074389;27;45189;-68
2022/04/14 06:25:58;;;;;;;;;50.50;41.50;;;;;13.37;84.15;101264.34;5074003;28;45428;-65
2022/04/14 06:28:24;;;;;;;;;47.25;38.00;;;;;13.43;84.01;101263.25;5074604;27;46372;-64
2022/04/14 06:30:51;;;;;;;;;46.75;39.50;;;;;13.49;83.62;101270.06;5073439;27;45454;-66
2022/04/14 06:33:18;;;;;;;;;46.25;39.25;;;;;13.51;83.72;101277.00;5073910;28;45528;-72
2022/04/14 06:35:44;;;;;;;;;49.00;39.25;;;;;13.64;83.54;101290.56;5072871;27;45449;-69
2022/04/14 06:38:09;;;;;;;;;53.00;42.75;;;;;13.68;83.00;101291.28;5064870;27;47101;-74
2022/04/14 06:40:35;;;;;;;;;48.00;40.00;;;;;13.80;82.53;101297.84;5074989;27;45271;-72
2022/04/14 06:43:02;;;;;;;;;42.00;36.00;;;;;13.90;82.06;101303.63;5076185;27;45883;-72
2022/04/14 06:45:27;;;;;;;;;49.50;40.75;;;;;13.95;81.69;101296.34;5077763;27;45565;-71
2022/04/14 06:47:53;;;;;;;;;47.75;39.50;;;;;13.99;80.89;101303.25;5077334;27;45443;-71
2022/04/14 06:50:19;;;;;;;;;47.75;38.75;;;;;13.96;80.80;101295.44;5075518;28;45396;-75
2022/04/14 06:52:44;;;;;;;;;44.25;37.25;;;;;13.99;80.72;101284.72;5077917;27;45161;-74
2022/04/14 06:55:10;;;;;;;;;44.00;36.50;;;;;14.03;80.09;101287.16;5076817;27;45426;-75
2022/04/14 06:57:36;;;;;;;;;47.00;38.25;;;;;14.25;79.98;101307.38;5078019;27;46353;-76
2022/04/14 07:00:04;;;;;;;;;44.00;36.75;;;;;14.39;79.94;101305.94;5078437;27;45375;-73
2022/04/14 07:02:31;;;;;;;;;45.75;36.00;;;;;14.52;79.56;101303.56;5078553;28;45355;-73
2022/04/14 07:04:59;;;;;;;;;36.75;32.00;;;;;14.70;78.85;101304.56;5094089;27;45588;-73
2022/04/14 07:07:24;;;;;;;;;51.00;41.25;;;;;14.80;78.50;101304.97;5077656;28;46077;-72
2022/04/14 07:09:49;;;;;;;;;42.75;36.25;;;;;14.90;77.69;101306.28;5077621;27;45356;-71
2022/04/14 07:12:15;;;;;;;;;43.25;35.75;;;;;14.95;77.38;101306.94;5076111;27;45252;-75
2022/04/14 07:14:40;;;;;;;;;44.50;36.75;;;;;15.00;76.90;101307.56;5077821;27;45370;-71
2022/04/14 07:17:06;;;;;;;;;35.25;32.75;;;;;15.03;76.18;101307.44;5077121;27;46231;-69
2022/04/14 07:19:31;;;;;;;;;41.00;33.50;;;;;15.05;75.84;101317.94;5077183;27;45220;-71
2022/04/14 07:21:57;;;;;;;;;42.00;35.75;;;;;15.01;75.85;101319.00;5077524;27;45424;-69
2022/04/14 07:24:22;;;;;;;;;42.25;36.00;;;;;15.03;76.03;101325.09;5077716;27;45573;-73
2022/04/14 07:26:47;;;;;;;;;40.75;33.50;;;;;15.12;75.72;101314.06;5077427;27;46910;-73
2022/04/14 07:29:13;;;;;;;;;40.75;35.75;;;;;15.33;75.63;101324.56;5077036;27;45337;-75
2022/04/14 07:31:41;;;;;;;;;45.75;36.00;;;;;15.59;74.59;101325.94;5077565;27;45443;-69
2022/04/14 07:34:08;;;;;;;;;40.00;34.75;;;;;15.87;73.86;101323.72;5077467;27;45168;-71
2022/04/14 07:36:34;;;;;;;;;39.00;33.00;;;;;16.09;72.49;101323.53;5077388;27;46758;-69
2022/04/14 07:39:00;;;;;;;;;39.00;34.75;;;;;16.21;72.04;101332.63;5077030;27;45391;-73
2022/04/14 07:41:26;;;;;;;;;40.00;33.50;;;;;16.27;71.20;101318.19;5076266;27;45355;-73
2022/04/14 07:43:55;;;;;;;;;38.00;34.00;;;;;16.33;71.20;101329.31;5077255;27;45440;-73
2022/04/14 07:46:20;;;;;;;;;45.25;36.25;;;;;16.33;70.82;101325.81;5076850;28;45727;-70
2022/04/14 07:48:46;;;;;;;;;42.50;36.25;;;;;16.27;70.51;101321.69;5076730;27;45445;-70
2022/04/14 07:51:11;;;;;;;;;47.00;36.25;;;;;16.20;70.25;101329.13;5077056;27;45300;-72
2022/04/14 07:53:37;;;;;;;;;41.75;35.25;;;;;16.07;69.99;101336.00;5077043;27;45181;-68
2022/04/14 07:56:04;;;;;;;;;42.25;34.50;;;;;15.92;70.02;101329.69;5076820;27;45410;-76
2022/04/14 07:58:30;;;;;;;;;37.00;34.25;;;;;15.77;70.55;101336.56;5076826;27;45190;-71
2022/04/14 08:00:56;;;;;;;;;39.25;34.25;;;;;15.66;70.80;101342.44;5075947;27;45260;-70
2022/04/14 08:03:21;;;;;;;;;37.00;32.75;;;;;15.57;70.72;101335.78;5077206;27;45593;-72
2022/04/14 08:05:48;;;;;;;;;31.50;29.50;;;;;15.51;70.82;101344.03;5076771;27;45787;-73
2022/04/14 08:08:19;;;;;;;;;36.50;31.50;;;;;15.36;71.44;101339.47;5076348;27;45439;-70
2022/04/14 08:10:48;;;;;;;;;35.50;30.50;;;;;15.20;70.75;101337.56;5076476;27;45329;-71
2022/04/14 08:13:14;;;;;;;;;36.00;31.50;;;;;15.19;71.61;101341.16;5076734;27;45354;-71
2022/04/14 08:15:40;;;;;;;;;38.25;32.25;;;;;15.21;71.47;101335.75;5074821;28;46812;-71
2022/04/14 08:18:06;;;;;;;;;39.25;33.25;;;;;15.28;71.33;101346.00;5076315;27;45344;-71
2022/04/14 08:20:33;;;;;;;;;27.75;24.50;;;;;15.32;70.92;101339.63;5076351;27;45294;-72
2022/04/14 08:22:59;;;;;;;;;37.75;32.25;;;;;15.40;70.71;101346.34;5092726;27;45458;-71
2022/04/14 08:25:25;;;;;;;;;30.50;28.75;;;;;15.48;70.25;101354.78;5076815;27;45690;-73
2022/04/14 08:27:52;;;;;;;;;30.50;28.75;;;;;15.45;70.19;101345.19;5076030;27;45382;-74
2022/04/14 08:30:20;;;;;;;;;35.50;32.25;;;;;15.51;70.65;101353.78;5076122;27;45339;-70
2022/04/14 08:32:47;;;;;;;;;39.00;32.75;;;;;15.58;69.72;101349.91;5076289;27;45349;-74
2022/04/14 08:35:14;;;;;;;;;35.50;32.25;;;;;15.52;69.87;101332.50;5075996;27;45372;-73
2022/04/14 08:37:41;;;;;;;;;30.75;29.75;;;;;15.71;69.67;101347.50;5076642;27;45451;-73
2022/04/14 08:40:09;;;;;;;;;32.25;30.75;;;;;15.80;69.38;101352.34;5092176;27;45419;-77
2022/04/14 08:42:39;;;;;;;;;31.00;30.25;;;;;15.87;69.12;101352.91;5076997;27;45348;-73
2022/04/14 08:45:06;;;;;;;;;39.50;33.00;;;;;15.96;69.44;101351.63;5076311;27;45295;-69
2022/04/14 08:47:34;;;;;;;;;39.50;33.50;;;;;16.08;68.90;101351.00;5075795;27;45447;-72
2022/04/14 08:50:00;;;;;;;;;42.25;35.25;;;;;16.20;68.76;101339.75;5076556;27;45478;-73
2022/04/14 08:52:26;;;;;;;;;31.50;30.00;;;;;16.31;68.64;101344.47;5076599;27;45449;-72
2022/04/14 08:54:54;;;;;;;;;42.00;33.00;;;;;16.45;68.03;101351.72;5075644;27;45509;-70
2022/04/14 08:57:20;;;;;;;;;43.00;35.25;;;;;16.55;67.31;101345.94;5075572;27;45235;-72
2022/04/14 08:59:46;;;;;;;;;39.25;35.25;;;;;16.64;67.35;101353.41;5075765;27;45244;-71
2022/04/14 09:02:17;;;;;;;;;43.25;35.25;;;;;16.69;66.44;101356.66;5075776;27;45650;-68
2022/04/14 09:04:44;;;;;;;;;38.75;33.75;;;;;16.70;66.18;101346.91;5073187;27;48078;-69
2022/04/14 09:07:10;;;;;;;;;33.50;31.25;;;;;16.82;66.37;101356.00;5075352;27;45483;-74
2022/04/14 09:09:37;;;;;;;;;34.00;32.00;;;;;16.90;65.42;101348.47;5075471;28;45268;-72
2022/04/14 09:12:02;;;;;;;;;23.75;19.25;;;;;16.90;65.38;101346.69;5074656;27;45386;-75
2022/04/14 09:14:31;;;;;;;;;35.00;32.25;;;;;16.99;65.25;101357.78;5075658;27;45622;-78
2022/04/14 09:16:56;;;;;;;;;36.00;31.25;;;;;17.05;64.88;101350.34;5075712;27;45507;-75
2022/04/14 09:19:25;;;;;;;;;34.50;32.50;;;;;17.15;64.61;101349.84;5075572;27;45516;-72
2022/04/14 09:22:01;;;;;;;;;38.00;32.25;;;;;17.23;64.96;101355.56;5075494;27;45196;-74
2022/04/14 09:24:52;;;;;;;;;34.25;32.00;;;;;17.35;64.45;101349.56;5075210;27;46375;-76
2022/04/14 09:27:33;;;;;;;;;37.75;33.00;;;;;17.43;63.86;101350.94;5075212;27;45208;-76
2022/04/14 09:30:03;;;;;;;;;34.00;30.75;;;;;17.53;63.74;101344.13;5075622;27;45391;-72
2022/04/14 09:32:42;;;;;;;;;31.75;29.50;;;;;17.66;62.81;101354.94;5075820;27;45369;-70
2022/04/14 09:35:17;;;;;;;;;38.50;32.00;;;;;17.80;63.59;101359.44;5073638;27;46826;-72
2022/04/14 09:37:42;;;;;;;;;38.50;32.75;;;;;17.89;62.98;101356.22;5075347;28;45546;-70
2022/04/14 09:40:09;;;;;;;;;28.50;28.50;;;;;17.98;62.51;101348.66;5073885;28;45287;-74
2022/04/14 09:42:36;;;;;;;;;36.75;31.00;;;;;18.04;61.78;101351.00;5075444;28;45433;-73
2022/04/14 09:45:20;;;;;;;;;29.75;29.75;;;;;18.18;61.30;101353.69;5075000;27;46260;-74
2022/04/14 09:47:47;;;;;;;;;28.00;24.50;;;;;18.25;61.28;101344.41;5090373;27;45317;-75
2022/04/14 09:50:25;;;;;;;;;33.00;30.25;;;;;18.43;60.68;101343.34;5075088;27;45269;-74
2022/04/14 09:53:04;;;;;;;;;26.50;23.50;;;;;18.51;60.00;101341.06;5075387;27;45652;-72
2022/04/14 09:55:29;;;;;;;;;29.75;28.00;;;;;18.52;59.31;101343.66;5075089;27;46258;-71
2022/04/14 09:58:12;;;;;;;;;25.75;24.00;;;;;18.59;59.06;101340.59;5074800;27;45375;-71
2022/04/14 10:00:47;;;;;;;;;30.25;28.25;;;;;18.69;58.75;101341.75;5075064;27;45386;-75
2022/04/14 10:03:17;;;;;;;;;29.00;24.50;;;;;18.80;59.05;101341.91;5075301;28;45298;-71
2022/04/14 10:05:43;;;;;;;;;22.75;21.50;;;;;18.97;58.74;101337.34;5074740;27;46164;-72
2022/04/14 10:08:09;;;;;;;;;19.50;19.00;;;;;19.09;57.00;101341.06;5090600;27;45263;-77
2022/04/14 10:10:36;;;;;;;;;25.00;22.50;;;;;19.14;56.93;101335.44;5073735;27;45398;-74
2022/04/14 10:13:07;;;;;;;;;20.00;20.00;;;;;19.28;57.24;101343.41;5075389;27;45471;-73
2022/04/14 10:15:38;;;;;;;;;35.25;28.00;;;;;19.45;56.40;101342.28;5074773;27;46449;-70
2022/04/14 10:18:07;;;;;;;;;23.00;20.50;;;;;19.55;55.27;101339.88;5077716;27;45529;-74
2022/04/14 10:20:34;;;;;;;;;17.25;14.00;;;;;19.56;52.99;101329.09;5078318;27;45288;-75
2022/04/14 10:23:01;;;;;;;;;17.75;16.00;;;;;19.57;54.48;101337.97;5078170;27;45227;-74
2022/04/14 10:25:27;;;;;;;;;21.25;20.00;;;;;19.66;54.08;101331.16;5077840;27;46502;-69
2022/04/14 10:27:55;;;;;;;;;17.75;17.25;;;;;19.76;54.02;101329.59;5093559;27;45325;-70
2022/04/14 10:30:21;;;;;;;;;24.00;21.75;;;;;19.74;54.18;101309.28;5078018;27;45303;-75
2022/04/14 10:32:46;;;;;;;;;20.00;18.50;;;;;19.92;53.68;101324.06;5078224;27;45846;-70
2022/04/14 10:35:13;;;;;;;;;23.25;22.25;;;;;20.02;53.79;101318.97;5077703;27;46632;-73
2022/04/14 10:37:44;;;;;;;;;19.50;15.00;;;;;20.15;52.96;101316.34;5077921;27;45340;-74
2022/04/14 10:40:11;;;;;;;;;20.75;20.50;;;;;20.19;52.79;101320.50;5077885;27;45361;-74
2022/04/14 10:42:38;;;;;;;;;20.00;19.50;;;;;20.19;52.82;101327.63;5078605;27;45444;-75
2022/04/14 10:45:17;;;;;;;;;21.00;21.00;;;;;20.17;52.61;101317.06;5077815;27;45275;-74
2022/04/14 10:47:42;;;;;;;;;27.00;25.25;;;;;20.21;52.60;101317.69;5076111;27;45305;-74
2022/04/14 10:50:21;;;;;;;;;19.00;17.25;;;;;20.22;52.25;101300.72;5077626;27;45317;-72
2022/04/14 10:53:06;;;;;;;;;20.75;19.00;;;;;20.48;51.32;101316.72;5077594;27;45234;-72
2022/04/14 10:55:38;;;;;;;;;18.00;18.00;;;;;20.58;51.52;101328.47;5077236;27;45584;-72
2022/04/14 10:58:05;;;;;;;;;12.00;12.00;;;;;20.64;50.36;101319.19;5077239;27;45401;-73
2022/04/14 11:00:37;;;;;;;;;19.50;17.00;;;;;20.75;50.00;101319.25;5076908;27;45443;-72
2022/04/14 11:03:07;;;;;;;;;14.25;11.75;;;;;20.81;50.30;101323.34;5077864;27;45496;-73
2022/04/14 11:05:36;;;;;;;;;11.75;11.75;;;;;20.83;49.94;101314.25;5077009;27;46280;-74
2022/04/14 11:08:32;;;;;;;;;14.25;13.75;;;;;20.91;49.69;101318.19;5076377;27;45367;-73